createdAt,value
2023-05-10T00:00:07.296Z,97795.56
2023-05-10T00:05:15.358Z,97806.41
2023-05-10T00:10:17.836Z,97794.53
2023-05-10T00:15:19.852Z,97794.31
2023-05-10T00:20:21.717Z,97788.88
2023-05-10T00:25:23.452Z,97787.06
2023-05-10T00:30:25.640Z,97783.03
2023-05-10T00:35:27.779Z,97781.81
2023-05-10T00:40:29.936Z,97767.38
2023-05-10T00:45:38.531Z,97766.38
2023-05-10T00:50:41.450Z,97766.56
2023-05-10T00:55:43.771Z,97760.94
2023-05-10T01:00:47.657Z,97754.50
2023-05-10T01:05:51.210Z,97760.72
2023-05-10T01:10:53.951Z,97752.88
2023-05-10T01:15:57.042Z,97755.88
2023-05-10T01:21:18.256Z,97751.84
2023-05-10T01:26:54.719Z,97745.44
2023-05-10T01:31:59.488Z,97736.56
2023-05-10T01:37:10.546Z,97728.34
2023-05-10T01:42:21.211Z,97730.13
2023-05-10T01:47:53.227Z,97734.28
2023-05-10T01:52:56.650Z,97729.44
2023-05-10T01:58:09.135Z,97732.81
2023-05-10T02:03:13.213Z,97731.38
2023-05-10T02:08:17.244Z,97735.00
2023-05-10T02:13:20.735Z,97729.13
2023-05-10T02:18:25.308Z,97728.91
2023-05-10T02:23:27.640Z,97722.84
2023-05-10T02:28:30.337Z,97716.59
2023-05-10T02:33:33.764Z,97713.97
2023-05-10T02:38:37.637Z,97706.72
2023-05-10T02:43:41.996Z,97708.09
2023-05-10T02:48:43.940Z,97701.41
2023-05-10T02:53:49.013Z,97711.78
2023-05-10T02:58:50.996Z,97700.13
2023-05-10T03:03:52.748Z,97703.72
2023-05-10T03:08:54.672Z,97722.94
2023-05-10T03:14:23.515Z,97716.13
2023-05-10T03:19:56.525Z,97718.31
2023-05-10T03:25:02.364Z,97706.91
2023-05-10T03:30:09.561Z,97708.50
2023-05-10T03:35:14.402Z,97702.50
2023-05-10T03:40:17.327Z,97706.09
2023-05-10T03:45:19.894Z,97715.28
2023-05-10T03:50:24.713Z,97715.88
2023-05-10T03:55:26.892Z,97727.72
2023-05-10T04:00:28.830Z,97726.78
2023-05-10T04:05:31.399Z,97727.41
2023-05-10T04:10:33.784Z,97722.19
2023-05-10T04:15:36.908Z,97723.00
2023-05-10T04:20:38.740Z,97719.22
2023-05-10T04:25:40.675Z,97717.41
2023-05-10T04:30:45.075Z,97714.44
2023-05-10T04:35:47.016Z,97720.31
2023-05-10T04:40:49.271Z,97715.56
2023-05-10T04:45:51.997Z,97707.59
2023-05-10T04:50:54.080Z,97704.81
2023-05-10T04:55:56.001Z,97706.03
2023-05-10T05:00:57.979Z,97702.25
2023-05-10T05:06:01.134Z,97708.28
2023-05-10T05:11:04.153Z,97706.38
2023-05-10T05:16:06.678Z,97710.03
2023-05-10T05:21:19.186Z,97708.88
2023-05-10T05:26:22.438Z,97709.13
2023-05-10T05:31:24.317Z,97709.56
2023-05-10T05:36:26.479Z,97705.78
2023-05-10T05:41:28.370Z,97712.25
2023-05-10T05:46:30.324Z,97711.69
2023-05-10T05:51:32.195Z,97705.88
2023-05-10T05:56:34.068Z,97710.91
2023-05-10T06:01:36.087Z,97706.34
2023-05-10T06:06:37.861Z,97718.19
2023-05-10T06:11:39.755Z,97730.84
2023-05-10T06:16:41.801Z,97734.25
2023-05-10T06:21:43.784Z,97739.44
2023-05-10T06:26:45.688Z,97733.56
2023-05-10T06:31:47.677Z,97732.94
2023-05-10T06:36:49.667Z,97728.03
2023-05-10T06:41:51.528Z,97733.59
2023-05-10T06:46:56.931Z,97735.13
2023-05-10T06:51:58.942Z,97737.84
2023-05-10T06:57:01.920Z,97732.56
2023-05-10T07:02:06.586Z,97730.84
2023-05-10T07:07:08.584Z,97739.63
2023-05-10T07:12:13.462Z,97738.19
2023-05-10T07:17:16.767Z,97747.59
2023-05-10T07:22:18.690Z,97742.94
2023-05-10T07:27:20.591Z,97739.84
2023-05-10T07:32:22.817Z,97736.16
2023-05-10T07:37:24.904Z,97748.97
2023-05-10T07:42:26.791Z,97745.72
2023-05-10T07:47:28.768Z,97743.63
2023-05-10T07:52:30.688Z,97733.88
2023-05-10T07:57:32.549Z,97730.81
2023-05-10T08:02:36.846Z,97737.94
2023-05-10T08:07:39.142Z,97729.13
2023-05-10T08:12:41.168Z,97731.97
2023-05-10T08:17:44.165Z,97739.72
2023-05-10T08:22:47.043Z,97734.75
2023-05-10T08:27:49.234Z,97740.72
2023-05-10T08:32:51.380Z,97745.53
2023-05-10T08:37:53.346Z,97749.00
2023-05-10T08:43:16.289Z,97755.53
2023-05-10T08:48:18.751Z,97767.69
2023-05-10T08:53:22.176Z,97768.94
2023-05-10T08:58:24.080Z,97777.88
2023-05-10T09:03:26.138Z,97774.25
2023-05-10T09:08:28.386Z,97781.38
2023-05-10T09:13:31.015Z,97783.25
2023-05-10T09:18:33.064Z,97781.91
2023-05-10T09:23:35.020Z,97789.44
2023-05-10T09:28:55.720Z,97783.28
2023-05-10T09:33:57.743Z,97790.72
2023-05-10T09:38:59.707Z,97791.88
2023-05-10T09:44:01.694Z,97795.41
2023-05-10T09:49:03.604Z,97798.16
2023-05-10T09:54:16.745Z,97796.09
2023-05-10T09:59:19.640Z,97795.31
2023-05-10T10:04:22.702Z,97795.41
2023-05-10T10:09:25.499Z,97795.19
2023-05-10T10:14:27.488Z,97795.53
2023-05-10T10:19:29.668Z,97789.72
2023-05-10T10:24:31.858Z,97789.81
2023-05-10T10:29:46.843Z,97787.75
2023-05-10T10:34:49.344Z,97793.81
2023-05-10T10:39:51.513Z,97790.97
2023-05-10T10:45:12.981Z,97793.84
2023-05-10T10:50:15.007Z,97798.88
2023-05-10T10:55:25.955Z,97795.19
2023-05-10T11:00:30.231Z,97798.84
2023-05-10T11:05:52.977Z,97790.94
2023-05-10T11:11:00.670Z,97797.44
2023-05-10T11:16:19.048Z,97800.44
2023-05-10T11:21:21.667Z,97801.47
2023-05-10T11:26:26.559Z,97805.81
2023-05-10T11:31:29.672Z,97810.28
2023-05-10T11:36:37.402Z,97817.84
2023-05-10T11:41:42.903Z,97809.03
2023-05-10T11:46:45.014Z,97818.66
2023-05-10T11:51:46.962Z,97809.13
2023-05-10T11:56:51.129Z,97808.31
2023-05-10T12:01:53.215Z,97816.09
2023-05-10T12:06:55.116Z,97819.53
2023-05-10T12:12:00.306Z,97818.69
2023-05-10T12:17:02.413Z,97828.31
2023-05-10T12:22:06.919Z,97825.53
2023-05-10T12:27:13.480Z,97827.84
2023-05-10T12:32:15.412Z,97831.31
2023-05-10T12:37:17.315Z,97839.78
2023-05-10T12:42:19.334Z,97845.25
2023-05-10T12:47:21.224Z,97845.44
2023-05-10T12:52:23.064Z,97852.66
2023-05-10T12:57:25.025Z,97851.16
2023-05-10T13:02:27.057Z,97854.44
2023-05-10T13:07:29.133Z,97856.25
2023-05-10T13:12:30.961Z,97854.84
2023-05-10T13:17:34.131Z,97847.50
2023-05-10T13:22:40.525Z,97853.00
2023-05-10T13:27:42.679Z,97853.25
2023-05-10T13:32:44.652Z,97849.09
2023-05-10T13:37:46.694Z,97842.31
2023-05-10T13:42:48.686Z,97839.88
2023-05-10T13:47:50.595Z,97848.50
2023-05-10T13:52:52.513Z,97839.38
2023-05-10T13:57:54.381Z,97829.06
2023-05-10T14:02:56.616Z,97834.44
2023-05-10T14:07:58.687Z,97832.13
2023-05-10T14:13:00.699Z,97823.97
2023-05-10T14:18:02.988Z,97826.28
2023-05-10T14:23:04.941Z,97830.81
2023-05-10T14:28:06.863Z,97830.78
2023-05-10T14:33:09.011Z,97822.53
2023-05-10T14:38:11.882Z,97819.09
2023-05-10T14:43:13.834Z,97822.31
2023-05-10T14:48:18.367Z,97828.06
2023-05-10T14:53:20.303Z,97815.44
2023-05-10T14:58:22.359Z,97826.53
2023-05-10T15:03:24.450Z,97824.69
2023-05-10T15:08:27.141Z,97836.03
2023-05-10T15:13:29.055Z,97833.59
2023-05-10T15:18:30.984Z,97837.16
2023-05-10T15:23:33.328Z,97844.31
2023-05-10T15:28:35.103Z,97844.66
2023-05-10T15:33:39.780Z,97845.50
2023-05-10T15:38:41.663Z,97844.50
2023-05-10T15:43:43.582Z,97854.00
2023-05-10T15:48:45.519Z,97849.31
2023-05-10T15:54:05.361Z,97845.19
2023-05-10T15:59:11.065Z,97857.88
2023-05-10T16:04:13.026Z,97856.38
2023-05-10T16:09:15.725Z,97862.34
2023-05-10T16:14:17.697Z,97862.44
2023-05-10T16:19:19.655Z,97867.69
2023-05-10T16:24:21.581Z,97871.38
2023-05-10T16:29:23.578Z,97870.34
2023-05-10T16:34:25.535Z,97868.28
2023-05-10T16:39:30.173Z,97887.25
2023-05-10T16:44:32.178Z,97886.59
2023-05-10T16:49:37.528Z,97875.25
2023-05-10T16:54:42.725Z,97887.25
2023-05-10T16:59:44.523Z,97897.44
2023-05-10T17:04:46.535Z,97903.72
2023-05-10T17:09:48.947Z,97901.56
2023-05-10T17:14:51.134Z,97907.38
2023-05-10T17:19:53.067Z,97909.22
2023-05-10T17:24:55.241Z,97913.91
2023-05-10T17:29:57.838Z,97915.97
2023-05-10T17:34:59.923Z,97916.19
2023-05-10T17:40:04.161Z,97920.06
2023-05-10T17:45:06.960Z,97928.41
2023-05-10T17:50:10.656Z,97935.94
2023-05-10T17:55:13.523Z,97937.63
2023-05-10T18:00:16.429Z,97935.91
2023-05-10T18:05:18.835Z,97935.78
2023-05-10T18:10:20.975Z,97945.34
2023-05-10T18:15:23.137Z,97949.91
2023-05-10T18:20:25.026Z,97951.00
2023-05-10T18:25:26.968Z,97953.50
2023-05-10T18:30:28.845Z,97954.38
2023-05-10T18:35:30.757Z,97953.41
2023-05-10T18:40:32.924Z,97962.97
2023-05-10T18:45:35.622Z,97972.31
2023-05-10T18:50:38.771Z,97969.13
2023-05-10T18:55:40.723Z,97977.66
2023-05-10T19:00:43.401Z,97981.16
2023-05-10T19:05:47.226Z,97990.91
2023-05-10T19:10:49.119Z,97989.38
2023-05-10T19:16:24.280Z,98000.16
2023-05-10T19:21:26.837Z,98002.66
2023-05-10T19:26:28.979Z,98012.78
2023-05-10T19:31:31.264Z,98010.78
2023-05-10T19:36:34.374Z,98021.72
2023-05-10T19:41:36.273Z,98016.31
2023-05-10T19:46:39.432Z,98023.00
2023-05-10T19:51:41.617Z,98019.44
2023-05-10T19:56:43.684Z,98012.41
2023-05-10T20:01:46.368Z,98020.53
2023-05-10T20:06:48.493Z,98027.25
2023-05-10T20:11:50.363Z,98021.25
2023-05-10T20:16:52.447Z,98019.47
2023-05-10T20:21:56.200Z,98018.50
2023-05-10T20:26:58.566Z,98015.31
2023-05-10T20:32:00.398Z,98024.63
2023-05-10T20:37:03.826Z,98017.81
2023-05-10T20:42:06.031Z,98022.06
2023-05-10T20:47:08.357Z,98027.13
2023-05-10T20:52:10.903Z,98031.19
2023-05-10T20:57:13.061Z,98023.75
2023-05-10T21:02:14.978Z,98025.19
2023-05-10T21:07:17.104Z,98023.19
2023-05-10T21:12:19.162Z,98029.25
2023-05-10T21:17:21.041Z,98023.44
2023-05-10T21:22:23.118Z,98032.13
2023-05-10T21:27:25.057Z,98040.59
2023-05-10T21:32:26.933Z,98036.75
2023-05-10T21:37:28.743Z,98040.81
2023-05-10T21:42:31.539Z,98036.19
2023-05-10T21:47:34.340Z,98029.75
2023-05-10T21:52:37.027Z,98038.22
2023-05-10T21:57:38.870Z,98044.88
2023-05-10T22:02:40.979Z,98041.88
2023-05-10T22:07:42.922Z,98045.91
2023-05-10T22:12:44.737Z,98046.31
2023-05-10T22:17:46.609Z,98050.13
2023-05-10T22:22:48.478Z,98042.91
2023-05-10T22:27:50.688Z,98048.75
2023-05-10T22:32:52.693Z,98038.88
2023-05-10T22:37:54.551Z,98040.69
2023-05-10T22:42:56.629Z,98053.16
2023-05-10T22:47:59.880Z,98046.53
2023-05-10T22:53:01.675Z,98046.53
2023-05-10T22:58:03.640Z,98049.16
2023-05-10T23:03:06.810Z,98048.34
2023-05-10T23:08:08.665Z,98043.09
2023-05-10T23:13:10.763Z,98047.13
2023-05-10T23:18:13.397Z,98048.94
2023-05-10T23:23:15.858Z,98049.34
2023-05-10T23:28:18.029Z,98048.13
2023-05-10T23:33:19.912Z,98049.53
2023-05-10T23:38:21.917Z,98049.94
2023-05-10T23:43:25.306Z,98047.13
2023-05-10T23:48:27.431Z,98050.94
2023-05-10T23:53:29.366Z,98047.53
2023-05-10T23:58:31.642Z,98044.50
